Leesburg, VA (20175)

4:07 PM EDT en Agosto 25, 2016 (GMT -0400)
Emerald Park Estates | | Change Station

Alt 424 ft 39.08 °N, 77.59 °W | Updated 2 seconds ago

Mostly Cloudy
Muy nublado
86.7 ° F
Sensación térmica 97 ° F
N
1.0
Viento Variable Viento desde OSO
Gusts 5.0 mph

Hoy
Alta -- | Baja -- ° F
--% Posibilidad de precipitaciones
Ayer
Alta -- | Baja -- ° F
Precip. -- pul
Presión 30.04 pul
Visibilidad 10.0 Millas
Nubes Muy nublado 3700 ft
Muy nublado 4300 ft
Muy nublado 6000 ft
Índice de calor 97 ° F
Punto de rocío 76 ° F
Humedad 71%
Precipitaciones 0.00 pul
Espesor de la nieve No disponible.
6:33 AM 7:50 PM
Cuarto menguante, 42% visible
METAR KJYO 251955Z AUTO 32004KT 10SM BKN037 BKN043 BKN060 32/25 A3004 RMK AO2
Presión 30.04 pul
Visibilidad 10.0 Millas
Nubes Muy nublado 3700 ft
Muy nublado 4300 ft
Muy nublado 6000 ft
Índice de calor 97 ° F
Punto de rocío 76 ° F
Humedad 71%
Precipitaciones 0.00 pul
Espesor de la nieve No disponible.
6:33 AM 7:50 PM
Cuarto menguante, 42% visible
METAR KJYO 251955Z AUTO 32004KT 10SM BKN037 BKN043 BKN060 32/25 A3004 RMK AO2
A tropical disturbance pushing toward the Bahamas, is expected to develop into a tropical depression or storm, and will likely target Florida and the Gulf Coast this weekend into next week.

Right now, the disturbance remains a broad area of low pressure pushing through the Dominican Republic and Haiti, headed toward the southeast Bahamas. Rainfall totals over 3 inches (with locally higher amounts) are expected in Hispañiola, particularly over elevated terrain.

10-Day Weather Forecast

Almanac

Astronomía

Aug. 25, 2016 Salida Puesta
Hora real
Crepúsculo civil
Crepúsculo náutico
Crepúsculo astronómico
Luna
Horas de luz
Horas de luz
Tomorrow will be .
, % of the Moon is Illuminated

Extremos de hoy

Máximos del estado Bajos del estado

Community

WunderPhotos

Upload Photos

1,934,921 ¡fotos cargadas!

WunderBlog® & News

Nearby

Calidad del aire

  Calidad del aire Índice AQ Contaminante
Not available.

Grosos de nieve

Estación Profundido Altura

Actividad de terremotos

Ciudad Distance Mag. Tiempo y dato
Magnitud mínima muestra es 2,5.

Temperaturas de aguas costeras

Lugar Temperatura

Stations

Estaciones meteorológicas cercanas

Ubicación de la estación Temp. Vientos helados Punto de rocío Humedad Viento Precip. Alt Actualizado Tipo
                   

Watches & Warnings

There are currently no watches in effect.